sensor_id;sensor_type;location;lat;lon;timestamp;P1;P2;P0
78512;PMS5003;67809;55.034;73.462;2023-04-24T00:00:55;18.33;16.33;11.00
78512;PMS5003;67809;55.034;73.462;2023-04-24T00:03:25;17.75;14.25;10.00
78512;PMS5003;67809;55.034;73.462;2023-04-24T00:05:53;19.00;16.00;10.00
78512;PMS5003;67809;55.034;73.462;2023-04-24T00:08:19;19.00;16.00;9.00
78512;PMS5003;67809;55.034;73.462;2023-04-24T00:10:46;16.67;14.00;8.00
78512;PMS5003;67809;55.034;73.462;2023-04-24T00:13:12;16.00;14.00;9.00
78512;PMS5003;67809;55.034;73.462;2023-04-24T00:15:38;18.00;15.00;10.00
78512;PMS5003;67809;55.034;73.462;2023-04-24T00:18:09;18.50;15.50;10.00
78512;PMS5003;67809;55.034;73.462;2023-04-24T00:20:40;17.00;15.00;10.00
78512;PMS5003;67809;55.034;73.462;2023-04-24T00:23:06;18.25;16.00;11.00
78512;PMS5003;67809;55.034;73.462;2023-04-24T00:25:33;18.00;16.25;11.25
78512;PMS5003;67809;55.034;73.462;2023-04-24T00:27:59;18.00;14.75;10.00
78512;PMS5003;67809;55.034;73.462;2023-04-24T00:30:25;19.33;16.00;10.33
78512;PMS5003;67809;55.034;73.462;2023-04-24T00:32:51;18.75;16.00;11.00
78512;PMS5003;67809;55.034;73.462;2023-04-24T00:35:18;18.00;15.25;11.00
78512;PMS5003;67809;55.034;73.462;2023-04-24T00:37:45;22.00;18.75;13.00
78512;PMS5003;67809;55.034;73.462;2023-04-24T00:40:16;25.67;21.67;15.00
78512;PMS5003;67809;55.034;73.462;2023-04-24T00:42:52;18.75;16.75;11.00
78512;PMS5003;67809;55.034;73.462;2023-04-24T00:45:23;27.75;23.00;15.50
78512;PMS5003;67809;55.034;73.462;2023-04-24T00:47:49;20.00;17.00;11.25
78512;PMS5003;67809;55.034;73.462;2023-04-24T00:50:17;22.00;17.00;11.00
78512;PMS5003;67809;55.034;73.462;2023-04-24T00:52:45;22.50;18.25;11.50
78512;PMS5003;67809;55.034;73.462;2023-04-24T00:55:12;20.00;17.00;12.00
78512;PMS5003;67809;55.034;73.462;2023-04-24T00:57:38;23.50;20.00;13.25
78512;PMS5003;67809;55.034;73.462;2023-04-24T01:00:05;25.33;21.67;15.00
78512;PMS5003;67809;55.034;73.462;2023-04-24T01:02:38;23.25;19.75;13.50
78512;PMS5003;67809;55.034;73.462;2023-04-24T01:05:07;28.00;24.00;15.00
78512;PMS5003;67809;55.034;73.462;2023-04-24T01:07:34;23.75;20.00;14.00
78512;PMS5003;67809;55.034;73.462;2023-04-24T01:10:05;36.50;29.50;19.00
78512;PMS5003;67809;55.034;73.462;2023-04-24T01:12:32;29.00;25.00;17.00
78512;PMS5003;67809;55.034;73.462;2023-04-24T01:15:04;34.00;28.25;19.00
78512;PMS5003;67809;55.034;73.462;2023-04-24T01:17:32;27.00;23.25;16.00
78512;PMS5003;67809;55.034;73.462;2023-04-24T01:19:59;29.00;25.00;15.33
78512;PMS5003;67809;55.034;73.462;2023-04-24T01:22:26;29.25;25.25;16.50
78512;PMS5003;67809;55.034;73.462;2023-04-24T01:24:52;29.25;24.00;16.50
78512;PMS5003;67809;55.034;73.462;2023-04-24T01:27:24;33.00;26.00;18.00
78512;PMS5003;67809;55.034;73.462;2023-04-24T01:29:50;31.00;25.50;17.00
78512;PMS5003;67809;55.034;73.462;2023-04-24T01:32:22;32.00;26.00;17.00
78512;PMS5003;67809;55.034;73.462;2023-04-24T01:34:49;28.75;23.00;14.00
78512;PMS5003;67809;55.034;73.462;2023-04-24T01:37:15;33.00;26.75;17.00
78512;PMS5003;67809;55.034;73.462;2023-04-24T01:39:43;27.50;23.50;15.75
78512;PMS5003;67809;55.034;73.462;2023-04-24T01:42:09;36.00;28.33;18.00
78512;PMS5003;67809;55.034;73.462;2023-04-24T01:44:41;34.00;28.00;18.00
78512;PMS5003;67809;55.034;73.462;2023-04-24T01:47:12;35.00;28.00;18.00
78512;PMS5003;67809;55.034;73.462;2023-04-24T01:49:55;34.80;28.00;19.00
78512;PMS5003;67809;55.034;73.462;2023-04-24T01:52:31;35.00;28.00;17.00
78512;PMS5003;67809;55.034;73.462;2023-04-24T01:54:59;31.75;25.50;16.25
78512;PMS5003;67809;55.034;73.462;2023-04-24T01:57:28;32.50;25.75;17.25
78512;PMS5003;67809;55.034;73.462;2023-04-24T02:00:00;29.00;24.00;16.00
78512;PMS5003;67809;55.034;73.462;2023-04-24T02:02:41;30.00;25.00;16.00
78512;PMS5003;67809;55.034;73.462;2023-04-24T02:05:08;33.00;26.00;16.75
78512;PMS5003;67809;55.034;73.462;2023-04-24T02:07:36;29.00;23.00;15.25
78512;PMS5003;67809;55.034;73.462;2023-04-24T02:10:05;25.33;21.67;14.00
78512;PMS5003;67809;55.034;73.462;2023-04-24T02:12:32;24.00;20.00;13.00
78512;PMS5003;67809;55.034;73.462;2023-04-24T02:14:59;24.00;20.00;12.75
78512;PMS5003;67809;55.034;73.462;2023-04-24T02:17:25;23.00;19.75;13.00
78512;PMS5003;67809;55.034;73.462;2023-04-24T02:20:02;21.75;18.50;11.00
78512;PMS5003;67809;55.034;73.462;2023-04-24T02:22:36;23.00;19.33;13.00
78512;PMS5003;67809;55.034;73.462;2023-04-24T02:25:02;23.50;19.75;13.00
78512;PMS5003;67809;55.034;73.462;2023-04-24T02:27:31;17.50;15.75;11.25
78512;PMS5003;67809;55.034;73.462;2023-04-24T02:29:57;20.75;18.00;12.00
78512;PMS5003;67809;55.034;73.462;2023-04-24T02:32:23;19.67;17.00;11.00
78512;PMS5003;67809;55.034;73.462;2023-04-24T02:34:49;21.75;19.00;14.00
78512;PMS5003;67809;55.034;73.462;2023-04-24T02:37:15;21.00;17.00;11.00
78512;PMS5003;67809;55.034;73.462;2023-04-24T02:39:43;23.25;19.00;12.75
78512;PMS5003;67809;55.034;73.462;2023-04-24T02:42:09;20.33;18.33;12.67
78512;PMS5003;67809;55.034;73.462;2023-04-24T02:44:45;24.00;20.00;12.00
78512;PMS5003;67809;55.034;73.462;2023-04-24T02:47:11;23.75;20.00;12.00
78512;PMS5003;67809;55.034;73.462;2023-04-24T02:49:37;21.00;17.50;11.50
78512;PMS5003;67809;55.034;73.462;2023-04-24T02:52:04;21.00;17.67;11.67
78512;PMS5003;67809;55.034;73.462;2023-04-24T02:54:30;20.50;18.50;13.50
78512;PMS5003;67809;55.034;73.462;2023-04-24T02:56:56;25.00;21.00;14.00
78512;PMS5003;67809;55.034;73.462;2023-04-24T02:59:22;24.00;20.00;13.00
78512;PMS5003;67809;55.034;73.462;2023-04-24T03:01:48;23.00;19.00;11.33
78512;PMS5003;67809;55.034;73.462;2023-04-24T03:04:14;22.50;18.75;12.00
78512;PMS5003;67809;55.034;73.462;2023-04-24T03:06:41;21.50;18.00;12.00
78512;PMS5003;67809;55.034;73.462;2023-04-24T03:09:17;23.75;19.50;13.00
78512;PMS5003;67809;55.034;73.462;2023-04-24T03:11:43;20.25;17.75;10.75
78512;PMS5003;67809;55.034;73.462;2023-04-24T03:14:09;22.00;18.00;11.75
78512;PMS5003;67809;55.034;73.462;2023-04-24T03:16:37;21.75;17.50;11.50
78512;PMS5003;67809;55.034;73.462;2023-04-24T03:19:04;21.00;18.00;11.50
78512;PMS5003;67809;55.034;73.462;2023-04-24T03:21:37;21.00;19.00;12.00
78512;PMS5003;67809;55.034;73.462;2023-04-24T03:24:07;21.75;18.00;12.00
78512;PMS5003;67809;55.034;73.462;2023-04-24T03:26:34;24.00;21.00;13.75
78512;PMS5003;67809;55.034;73.462;2023-04-24T03:29:18;24.00;19.75;13.00
78512;PMS5003;67809;55.034;73.462;2023-04-24T03:31:44;24.00;20.00;13.00
78512;PMS5003;67809;55.034;73.462;2023-04-24T03:34:12;22.50;19.00;13.00
78512;PMS5003;67809;55.034;73.462;2023-04-24T03:36:38;21.25;19.00;13.00
78512;PMS5003;67809;55.034;73.462;2023-04-24T03:39:15;25.50;22.00;13.00
78512;PMS5003;67809;55.034;73.462;2023-04-24T03:41:59;25.00;21.25;14.00
78512;PMS5003;67809;55.034;73.462;2023-04-24T03:44:36;24.00;21.00;13.50
78512;PMS5003;67809;55.034;73.462;2023-04-24T03:47:03;28.00;22.00;14.75
78512;PMS5003;67809;55.034;73.462;2023-04-24T03:49:30;21.50;18.00;12.00
78512;PMS5003;67809;55.034;73.462;2023-04-24T03:51:56;23.00;20.33;14.00
78512;PMS5003;67809;55.034;73.462;2023-04-24T03:54:25;21.50;18.50;12.50
78512;PMS5003;67809;55.034;73.462;2023-04-24T03:57:03;27.00;22.50;15.00
78512;PMS5003;67809;55.034;73.462;2023-04-24T03:59:32;24.50;20.25;14.00
78512;PMS5003;67809;55.034;73.462;2023-04-24T04:02:22;25.67;21.00;15.00
78512;PMS5003;67809;55.034;73.462;2023-04-24T04:04:59;27.00;21.00;14.25
78512;PMS5003;67809;55.034;73.462;2023-04-24T04:07:26;27.75;23.00;16.00
78512;PMS5003;67809;55.034;73.462;2023-04-24T04:09:52;26.00;23.00;16.00
78512;PMS5003;67809;55.034;73.462;2023-04-24T04:12:18;24.25;20.75;13.75
78512;PMS5003;67809;55.034;73.462;2023-04-24T04:14:44;28.00;22.00;14.00
78512;PMS5003;67809;55.034;73.462;2023-04-24T04:17:10;24.00;21.00;14.00
78512;PMS5003;67809;55.034;73.462;2023-04-24T04:19:46;28.50;23.50;16.00
78512;PMS5003;67809;55.034;73.462;2023-04-24T04:22:13;29.00;23.00;16.00
78512;PMS5003;67809;55.034;73.462;2023-04-24T04:24:45;28.00;23.75;15.00
78512;PMS5003;67809;55.034;73.462;2023-04-24T04:27:12;27.75;22.75;15.00
78512;PMS5003;67809;55.034;73.462;2023-04-24T04:29:50;25.75;21.75;14.00
78512;PMS5003;67809;55.034;73.462;2023-04-24T04:32:17;25.00;20.75;14.75
78512;PMS5003;67809;55.034;73.462;2023-04-24T04:34:51;22.75;20.00;13.00
78512;PMS5003;67809;55.034;73.462;2023-04-24T04:37:19;24.50;21.00;13.50
78512;PMS5003;67809;55.034;73.462;2023-04-24T04:39:51;23.50;20.50;13.00
78512;PMS5003;67809;55.034;73.462;2023-04-24T04:42:24;23.00;19.00;14.00
78512;PMS5003;67809;55.034;73.462;2023-04-24T04:44:50;24.00;21.00;14.00
78512;PMS5003;67809;55.034;73.462;2023-04-24T04:47:21;22.75;19.00;13.00
78512;PMS5003;67809;55.034;73.462;2023-04-24T04:49:52;21.50;18.25;13.00
78512;PMS5003;67809;55.034;73.462;2023-04-24T04:52:21;22.00;19.00;12.00
78512;PMS5003;67809;55.034;73.462;2023-04-24T04:54:55;21.00;18.00;12.00
78512;PMS5003;67809;55.034;73.462;2023-04-24T04:57:27;21.00;18.00;12.75
78512;PMS5003;67809;55.034;73.462;2023-04-24T05:00:04;21.00;19.00;13.00
78512;PMS5003;67809;55.034;73.462;2023-04-24T05:02:46;22.00;18.00;12.00
78512;PMS5003;67809;55.034;73.462;2023-04-24T05:05:13;20.50;18.00;13.00
78512;PMS5003;67809;55.034;73.462;2023-04-24T05:07:39;23.00;18.00;12.00
78512;PMS5003;67809;55.034;73.462;2023-04-24T05:10:05;21.50;18.75;13.00
78512;PMS5003;67809;55.034;73.462;2023-04-24T05:12:31;20.00;17.00;12.00
78512;PMS5003;67809;55.034;73.462;2023-04-24T05:14:59;21.00;18.00;12.25
78512;PMS5003;67809;55.034;73.462;2023-04-24T05:17:31;21.00;17.00;11.25
78512;PMS5003;67809;55.034;73.462;2023-04-24T05:19:58;20.00;18.00;13.00
78512;PMS5003;67809;55.034;73.462;2023-04-24T05:22:35;18.00;16.00;11.00
78512;PMS5003;67809;55.034;73.462;2023-04-24T05:25:12;19.50;17.75;12.00
78512;PMS5003;67809;55.034;73.462;2023-04-24T05:27:50;19.75;17.00;11.00
78512;PMS5003;67809;55.034;73.462;2023-04-24T05:30:27;19.75;16.75;12.00
78512;PMS5003;67809;55.034;73.462;2023-04-24T05:32:53;18.00;16.00;10.67
78512;PMS5003;67809;55.034;73.462;2023-04-24T05:35:20;17.00;15.00;10.50
78512;PMS5003;67809;55.034;73.462;2023-04-24T05:37:46;18.00;16.00;11.00
78512;PMS5003;67809;55.034;73.462;2023-04-24T05:40:13;21.50;17.00;11.50
78512;PMS5003;67809;55.034;73.462;2023-04-24T05:42:39;20.75;18.00;12.00
78512;PMS5003;67809;55.034;73.462;2023-04-24T05:45:05;17.00;15.00;10.00
78512;PMS5003;67809;55.034;73.462;2023-04-24T05:47:32;19.00;16.00;11.00
78512;PMS5003;67809;55.034;73.462;2023-04-24T05:49:59;18.00;16.00;11.00
78512;PMS5003;67809;55.034;73.462;2023-04-24T05:52:35;16.00;14.00;10.50
78512;PMS5003;67809;55.034;73.462;2023-04-24T05:55:05;16.00;15.00;10.00
78512;PMS5003;67809;55.034;73.462;2023-04-24T05:57:33;16.00;14.00;10.00
78512;PMS5003;67809;55.034;73.462;2023-04-24T06:00:08;15.25;14.00;10.00
78512;PMS5003;67809;55.034;73.462;2023-04-24T06:02:44;15.00;14.00;9.00
78512;PMS5003;67809;55.034;73.462;2023-04-24T06:05:12;13.00;11.50;8.00
78512;PMS5003;67809;55.034;73.462;2023-04-24T06:07:48;15.00;13.00;9.00
78512;PMS5003;67809;55.034;73.462;2023-04-24T06:10:20;13.75;12.25;9.00
78512;PMS5003;67809;55.034;73.462;2023-04-24T06:12:56;14.00;13.00;9.00
78512;PMS5003;67809;55.034;73.462;2023-04-24T06:15:30;17.00;15.00;11.00
78512;PMS5003;67809;55.034;73.462;2023-04-24T06:18:11;14.00;13.00;9.00
78512;PMS5003;67809;55.034;73.462;2023-04-24T06:20:39;17.00;15.00;10.00
78512;PMS5003;67809;55.034;73.462;2023-04-24T06:23:08;14.00;13.00;9.00
78512;PMS5003;67809;55.034;73.462;2023-04-24T06:25:34;13.00;12.25;9.00
78512;PMS5003;67809;55.034;73.462;2023-04-24T06:28:00;14.75;13.00;9.00
78512;PMS5003;67809;55.034;73.462;2023-04-24T06:30:29;15.00;13.00;9.00
78512;PMS5003;67809;55.034;73.462;2023-04-24T06:32:55;14.00;13.00;9.00
78512;PMS5003;67809;55.034;73.462;2023-04-24T06:35:21;13.00;12.25;8.75
78512;PMS5003;67809;55.034;73.462;2023-04-24T06:37:47;13.50;12.00;9.00
78512;PMS5003;67809;55.034;73.462;2023-04-24T06:40:17;22.00;20.00;14.00
78512;PMS5003;67809;55.034;73.462;2023-04-24T06:42:59;13.00;13.00;9.00
78512;PMS5003;67809;55.034;73.462;2023-04-24T06:45:43;13.75;12.00;9.00
78512;PMS5003;67809;55.034;73.462;2023-04-24T06:48:09;12.00;11.00;8.00
78512;PMS5003;67809;55.034;73.462;2023-04-24T06:50:35;11.00;10.00;8.00
78512;PMS5003;67809;55.034;73.462;2023-04-24T06:53:02;19.00;17.00;12.00
78512;PMS5003;67809;55.034;73.462;2023-04-24T06:55:28;13.00;12.00;8.00
78512;PMS5003;67809;55.034;73.462;2023-04-24T06:57:54;13.00;11.00;7.00
78512;PMS5003;67809;55.034;73.462;2023-04-24T07:00:20;11.50;10.50;8.00
78512;PMS5003;67809;55.034;73.462;2023-04-24T07:02:46;11.00;10.00;8.00
78512;PMS5003;67809;55.034;73.462;2023-04-24T07:05:12;11.00;10.00;8.00
78512;PMS5003;67809;55.034;73.462;2023-04-24T07:07:38;11.00;10.75;8.00
78512;PMS5003;67809;55.034;73.462;2023-04-24T07:10:05;11.50;10.75;8.00
78512;PMS5003;67809;55.034;73.462;2023-04-24T07:12:32;11.00;10.00;7.00
78512;PMS5003;67809;55.034;73.462;2023-04-24T07:15:04;10.00;9.00;6.00
78512;PMS5003;67809;55.034;73.462;2023-04-24T07:17:36;10.50;10.00;7.00
78512;PMS5003;67809;55.034;73.462;2023-04-24T07:20:04;10.00;9.50;7.00
78512;PMS5003;67809;55.034;73.462;2023-04-24T07:22:37;12.00;12.00;8.00
78512;PMS5003;67809;55.034;73.462;2023-04-24T07:25:03;12.00;11.00;8.00
78512;PMS5003;67809;55.034;73.462;2023-04-24T07:27:29;13.00;12.00;8.00
78512;PMS5003;67809;55.034;73.462;2023-04-24T07:30:00;11.00;10.00;7.75
78512;PMS5003;67809;55.034;73.462;2023-04-24T07:32:26;13.50;11.50;8.00
78512;PMS5003;67809;55.034;73.462;2023-04-24T07:34:52;10.67;10.00;7.00
78512;PMS5003;67809;55.034;73.462;2023-04-24T07:37:19;8.75;8.50;6.00
78512;PMS5003;67809;55.034;73.462;2023-04-24T07:39:45;10.00;9.00;6.00
78512;PMS5003;67809;55.034;73.462;2023-04-24T07:42:11;8.00;8.00;6.00
78512;PMS5003;67809;55.034;73.462;2023-04-24T07:44:42;9.33;8.00;6.00
78512;PMS5003;67809;55.034;73.462;2023-04-24T07:47:08;10.00;9.00;7.00
78512;PMS5003;67809;55.034;73.462;2023-04-24T07:49:34;10.25;9.00;7.00
78512;PMS5003;67809;55.034;73.462;2023-04-24T07:52:00;11.00;10.00;7.00
78512;PMS5003;67809;55.034;73.462;2023-04-24T07:54:28;12.00;10.00;7.00
78512;PMS5003;67809;55.034;73.462;2023-04-24T07:57:04;11.75;10.50;8.00
78512;PMS5003;67809;55.034;73.462;2023-04-24T07:59:32;13.00;11.00;8.00
78512;PMS5003;67809;55.034;73.462;2023-04-24T08:02:03;12.00;11.00;7.00
78512;PMS5003;67809;55.034;73.462;2023-04-24T08:04:29;13.00;11.00;7.67
78512;PMS5003;67809;55.034;73.462;2023-04-24T08:06:55;13.00;12.00;8.00
78512;PMS5003;67809;55.034;73.462;2023-04-24T08:09:21;12.00;11.00;8.00
78512;PMS5003;67809;55.034;73.462;2023-04-24T08:11:47;14.00;12.00;8.00
78512;PMS5003;67809;55.034;73.462;2023-04-24T08:14:13;11.00;10.00;7.00
78512;PMS5003;67809;55.034;73.462;2023-04-24T08:16:40;10.00;10.00;7.00
78512;PMS5003;67809;55.034;73.462;2023-04-24T08:19:07;11.00;10.00;7.00
78512;PMS5003;67809;55.034;73.462;2023-04-24T08:21:33;10.50;9.00;6.00
78512;PMS5003;67809;55.034;73.462;2023-04-24T08:23:59;11.50;10.25;6.50
78512;PMS5003;67809;55.034;73.462;2023-04-24T08:26:26;10.00;9.25;6.50
78512;PMS5003;67809;55.034;73.462;2023-04-24T08:28:52;13.00;12.00;8.00
78512;PMS5003;67809;55.034;73.462;2023-04-24T08:31:18;10.00;9.75;6.00
78512;PMS5003;67809;55.034;73.462;2023-04-24T08:33:47;9.33;9.00;7.00
78512;PMS5003;67809;55.034;73.462;2023-04-24T08:36:23;12.00;10.75;7.00
78512;PMS5003;67809;55.034;73.462;2023-04-24T08:38:49;13.00;11.00;7.75
78512;PMS5003;67809;55.034;73.462;2023-04-24T08:41:16;11.00;10.00;7.00
78512;PMS5003;67809;55.034;73.462;2023-04-24T08:43:43;12.00;10.00;7.75
78512;PMS5003;67809;55.034;73.462;2023-04-24T08:46:17;12.00;11.00;8.00
78512;PMS5003;67809;55.034;73.462;2023-04-24T08:48:44;12.75;12.00;8.25
78512;PMS5003;67809;55.034;73.462;2023-04-24T08:51:11;14.50;12.00;8.00
78512;PMS5003;67809;55.034;73.462;2023-04-24T08:53:37;13.00;11.00;8.00
78512;PMS5003;67809;55.034;73.462;2023-04-24T08:56:03;12.00;10.67;8.00
78512;PMS5003;67809;55.034;73.462;2023-04-24T08:58:35;13.75;12.25;8.00
78512;PMS5003;67809;55.034;73.462;2023-04-24T09:01:01;11.00;9.00;7.00
78512;PMS5003;67809;55.034;73.462;2023-04-24T09:03:27;11.00;10.00;7.00
78512;PMS5003;67809;55.034;73.462;2023-04-24T09:05:54;9.00;9.00;6.00
78512;PMS5003;67809;55.034;73.462;2023-04-24T09:08:21;11.00;9.50;6.00
78512;PMS5003;67809;55.034;73.462;2023-04-24T09:10:49;8.00;7.50;5.50
78512;PMS5003;67809;55.034;73.462;2023-04-24T09:13:15;10.00;8.00;6.00
78512;PMS5003;67809;55.034;73.462;2023-04-24T09:15:42;8.00;7.00;6.00
78512;PMS5003;67809;55.034;73.462;2023-04-24T09:18:12;8.00;8.00;6.00
78512;PMS5003;67809;55.034;73.462;2023-04-24T09:20:57;8.00;8.00;6.00
78512;PMS5003;67809;55.034;73.462;2023-04-24T09:23:34;8.00;7.75;5.50
78512;PMS5003;67809;55.034;73.462;2023-04-24T09:26:01;7.67;7.00;5.00
78512;PMS5003;67809;55.034;73.462;2023-04-24T09:28:37;7.00;7.00;5.75
78512;PMS5003;67809;55.034;73.462;2023-04-24T09:31:06;8.00;7.00;5.00
78512;PMS5003;67809;55.034;73.462;2023-04-24T09:33:33;8.50;8.00;6.00
78512;PMS5003;67809;55.034;73.462;2023-04-24T09:35:59;8.00;7.25;5.00
78512;PMS5003;67809;55.034;73.462;2023-04-24T09:38:33;10.00;8.00;6.00
78512;PMS5003;67809;55.034;73.462;2023-04-24T09:41:00;7.50;7.00;5.00
78512;PMS5003;67809;55.034;73.462;2023-04-24T09:43:36;7.00;7.00;5.00
78512;PMS5003;67809;55.034;73.462;2023-04-24T09:46:06;8.00;7.00;5.00
78512;PMS5003;67809;55.034;73.462;2023-04-24T09:48:33;8.25;7.00;5.00
78512;PMS5003;67809;55.034;73.462;2023-04-24T09:51:00;8.00;7.25;6.00
78512;PMS5003;67809;55.034;73.462;2023-04-24T09:53:27;6.00;5.50;5.00
78512;PMS5003;67809;55.034;73.462;2023-04-24T09:55:53;6.00;6.00;5.00
78512;PMS5003;67809;55.034;73.462;2023-04-24T09:58:28;6.00;6.00;4.25
78512;PMS5003;67809;55.034;73.462;2023-04-24T10:01:01;5.00;5.00;4.00
78512;PMS5003;67809;55.034;73.462;2023-04-24T10:03:29;6.00;6.00;4.00
78512;PMS5003;67809;55.034;73.462;2023-04-24T10:05:59;6.00;5.00;4.00
78512;PMS5003;67809;55.034;73.462;2023-04-24T10:08:25;4.75;4.00;3.00
78512;PMS5003;67809;55.034;73.462;2023-04-24T10:10:52;5.00;5.00;4.00
78512;PMS5003;67809;55.034;73.462;2023-04-24T10:13:18;6.00;5.50;4.00
78512;PMS5003;67809;55.034;73.462;2023-04-24T10:15:44;4.00;4.00;3.00
78512;PMS5003;67809;55.034;73.462;2023-04-24T10:18:14;4.00;4.00;3.00
78512;PMS5003;67809;55.034;73.462;2023-04-24T10:20:41;5.00;5.00;4.00
78512;PMS5003;67809;55.034;73.462;2023-04-24T10:23:07;4.00;3.50;3.00
78512;PMS5003;67809;55.034;73.462;2023-04-24T10:25:34;3.00;3.00;2.00
78512;PMS5003;67809;55.034;73.462;2023-04-24T10:28:00;3.75;3.00;1.25
78512;PMS5003;67809;55.034;73.462;2023-04-24T10:30:27;3.00;3.00;2.00
78512;PMS5003;67809;55.034;73.462;2023-04-24T10:32:54;3.00;3.00;2.00
78512;PMS5003;67809;55.034;73.462;2023-04-24T10:35:20;2.00;2.00;2.00
78512;PMS5003;67809;55.034;73.462;2023-04-24T10:37:54;2.75;2.75;2.00
78512;PMS5003;67809;55.034;73.462;2023-04-24T10:40:32;3.00;3.00;2.00
78512;PMS5003;67809;55.034;73.462;2023-04-24T10:42:59;3.00;3.00;2.00
78512;PMS5003;67809;55.034;73.462;2023-04-24T10:45:25;3.00;3.00;2.00
78512;PMS5003;67809;55.034;73.462;2023-04-24T10:48:07;5.00;4.00;2.75
78512;PMS5003;67809;55.034;73.462;2023-04-24T10:50:46;3.00;3.00;2.00
78512;PMS5003;67809;55.034;73.462;2023-04-24T10:53:18;3.00;3.00;2.00
78512;PMS5003;67809;55.034;73.462;2023-04-24T10:55:45;3.25;3.00;2.00
78512;PMS5003;67809;55.034;73.462;2023-04-24T10:58:11;4.00;4.00;2.00
78512;PMS5003;67809;55.034;73.462;2023-04-24T11:00:38;4.00;4.00;3.00
78512;PMS5003;67809;55.034;73.462;2023-04-24T11:03:26;3.00;3.00;3.00
78512;PMS5003;67809;55.034;73.462;2023-04-24T11:05:52;3.00;3.00;2.00
78512;PMS5003;67809;55.034;73.462;2023-04-24T11:11:00;4.00;4.00;3.00
78512;PMS5003;67809;55.034;73.462;2023-04-24T11:13:27;4.00;4.00;3.00
78512;PMS5003;67809;55.034;73.462;2023-04-24T11:16:15;5.00;4.00;3.00
78512;PMS5003;67809;55.034;73.462;2023-04-24T11:18:49;5.00;4.00;3.00
78512;PMS5003;67809;55.034;73.462;2023-04-24T11:21:22;5.00;4.75;3.00
78512;PMS5003;67809;55.034;73.462;2023-04-24T11:23:48;5.00;4.00;3.00
78512;PMS5003;67809;55.034;73.462;2023-04-24T11:26:18;3.00;3.00;2.00
78512;PMS5003;67809;55.034;73.462;2023-04-24T11:28:46;4.00;4.00;3.00
78512;PMS5003;67809;55.034;73.462;2023-04-24T11:34:12;5.00;4.00;2.00
78512;PMS5003;67809;55.034;73.462;2023-04-24T11:36:42;4.00;3.67;2.00
78512;PMS5003;67809;55.034;73.462;2023-04-24T11:39:14;4.00;3.75;3.00
78512;PMS5003;67809;55.034;73.462;2023-04-24T11:41:40;4.00;4.00;2.00
78512;PMS5003;67809;55.034;73.462;2023-04-24T11:44:16;4.00;4.00;2.00
78512;PMS5003;67809;55.034;73.462;2023-04-24T11:46:46;4.00;3.00;2.00
78512;PMS5003;67809;55.034;73.462;2023-04-24T11:49:12;4.00;4.00;2.75
78512;PMS5003;67809;55.034;73.462;2023-04-24T11:51:38;4.00;3.50;2.00
78512;PMS5003;67809;55.034;73.462;2023-04-24T11:54:07;4.00;4.00;2.00
78512;PMS5003;67809;55.034;73.462;2023-04-24T11:56:34;3.00;3.00;2.00
78512;PMS5003;67809;55.034;73.462;2023-04-24T11:59:00;3.00;3.00;2.00
78512;PMS5003;67809;55.034;73.462;2023-04-24T12:01:29;4.00;4.00;3.00
78512;PMS5003;67809;55.034;73.462;2023-04-24T12:04:05;3.00;3.00;2.00
78512;PMS5003;67809;55.034;73.462;2023-04-24T12:06:31;3.00;3.00;2.00
78512;PMS5003;67809;55.034;73.462;2023-04-24T12:09:01;3.00;3.00;2.00
78512;PMS5003;67809;55.034;73.462;2023-04-24T12:11:28;3.00;3.00;3.00
78512;PMS5003;67809;55.034;73.462;2023-04-24T12:13:54;4.00;3.00;2.00
78512;PMS5003;67809;55.034;73.462;2023-04-24T12:16:20;4.00;4.00;2.00
78512;PMS5003;67809;55.034;73.462;2023-04-24T12:18:46;3.00;3.00;2.00
78512;PMS5003;67809;55.034;73.462;2023-04-24T12:21:16;4.00;4.00;3.00
78512;PMS5003;67809;55.034;73.462;2023-04-24T12:23:43;4.00;4.00;2.00
78512;PMS5003;67809;55.034;73.462;2023-04-24T12:26:19;3.00;3.00;2.00
78512;PMS5003;67809;55.034;73.462;2023-04-24T12:28:49;4.00;4.00;2.25
78512;PMS5003;67809;55.034;73.462;2023-04-24T12:31:15;3.00;3.00;2.00
78512;PMS5003;67809;55.034;73.462;2023-04-24T12:33:42;3.00;2.50;2.00
78512;PMS5003;67809;55.034;73.462;2023-04-24T12:36:11;3.33;3.00;3.00
78512;PMS5003;67809;55.034;73.462;2023-04-24T12:38:38;4.00;3.75;2.00
78512;PMS5003;67809;55.034;73.462;2023-04-24T12:41:08;3.00;3.00;2.00
78512;PMS5003;67809;55.034;73.462;2023-04-24T12:43:34;4.00;3.00;2.00
78512;PMS5003;67809;55.034;73.462;2023-04-24T12:46:05;5.00;4.00;2.00
78512;PMS5003;67809;55.034;73.462;2023-04-24T12:48:32;3.00;3.00;2.00
78512;PMS5003;67809;55.034;73.462;2023-04-24T12:50:58;3.50;3.00;2.00
78512;PMS5003;67809;55.034;73.462;2023-04-24T12:53:27;3.00;3.00;2.00
78512;PMS5003;67809;55.034;73.462;2023-04-24T12:55:55;4.00;4.00;3.00
78512;PMS5003;67809;55.034;73.462;2023-04-24T12:58:21;4.00;3.00;2.00
78512;PMS5003;67809;55.034;73.462;2023-04-24T13:00:49;3.75;3.25;2.50
78512;PMS5003;67809;55.034;73.462;2023-04-24T13:03:16;3.00;2.00;2.00
78512;PMS5003;67809;55.034;73.462;2023-04-24T13:05:42;2.75;2.00;1.00
78512;PMS5003;67809;55.034;73.462;2023-04-24T13:08:18;3.00;2.00;2.00
78512;PMS5003;67809;55.034;73.462;2023-04-24T13:10:49;4.00;3.25;2.00
78512;PMS5003;67809;55.034;73.462;2023-04-24T13:13:18;3.00;2.25;1.00
78512;PMS5003;67809;55.034;73.462;2023-04-24T13:15:50;3.00;2.00;2.00
78512;PMS5003;67809;55.034;73.462;2023-04-24T13:18:16;4.00;3.00;2.00
78512;PMS5003;67809;55.034;73.462;2023-04-24T13:20:42;3.00;3.00;2.00
78512;PMS5003;67809;55.034;73.462;2023-04-24T13:23:09;2.00;2.00;2.00
78512;PMS5003;67809;55.034;73.462;2023-04-24T13:25:36;3.00;2.00;1.00
78512;PMS5003;67809;55.034;73.462;2023-04-24T13:28:14;2.00;2.00;2.00
78512;PMS5003;67809;55.034;73.462;2023-04-24T13:30:50;4.00;3.00;2.00
78512;PMS5003;67809;55.034;73.462;2023-04-24T13:33:17;1.75;1.75;1.00
78512;PMS5003;67809;55.034;73.462;2023-04-24T13:35:43;3.00;2.75;1.00
78512;PMS5003;67809;55.034;73.462;2023-04-24T13:38:18;2.00;2.00;2.00
78512;PMS5003;67809;55.034;73.462;2023-04-24T13:40:47;4.00;3.00;2.00
78512;PMS5003;67809;55.034;73.462;2023-04-24T13:43:17;2.00;2.00;1.00
78512;PMS5003;67809;55.034;73.462;2023-04-24T13:45:48;2.00;2.00;1.00
78512;PMS5003;67809;55.034;73.462;2023-04-24T13:48:14;3.00;2.00;1.00
78512;PMS5003;67809;55.034;73.462;2023-04-24T13:50:51;2.75;2.00;1.00
78512;PMS5003;67809;55.034;73.462;2023-04-24T13:53:17;3.00;3.00;2.00
78512;PMS5003;67809;55.034;73.462;2023-04-24T13:55:43;2.00;2.00;2.00
78512;PMS5003;67809;55.034;73.462;2023-04-24T13:58:13;3.00;3.00;2.00
78512;PMS5003;67809;55.034;73.462;2023-04-24T14:00:40;3.50;3.00;2.00
78512;PMS5003;67809;55.034;73.462;2023-04-24T14:03:06;3.75;3.00;2.00
78512;PMS5003;67809;55.034;73.462;2023-04-24T14:05:32;3.00;3.00;2.00